createdAt,value
2022-11-05T00:00:17.997Z,9.70
2022-11-05T00:03:08.926Z,9.70
2022-11-05T00:06:00.505Z,9.70
2022-11-05T00:08:50.947Z,9.70
2022-11-05T00:11:45.926Z,9.70
2022-11-05T00:14:45.111Z,9.70
2022-11-05T00:17:18.536Z,9.70
2022-11-05T00:19:51.809Z,9.70
2022-11-05T00:22:42.976Z,9.70
2022-11-05T00:25:17.860Z,9.80
2022-11-05T00:27:54.684Z,9.80
2022-11-05T00:30:28.166Z,9.80
2022-11-05T00:33:03.426Z,9.80
2022-11-05T00:35:36.650Z,9.90
2022-11-05T00:38:10.310Z,9.90
2022-11-05T00:40:43.581Z,9.90
2022-11-05T00:43:35.481Z,9.90
2022-11-05T00:46:08.776Z,9.90
2022-11-05T00:49:00.083Z,9.80
2022-11-05T00:51:33.376Z,9.80
2022-11-05T00:54:06.871Z,9.70
2022-11-05T00:56:40.214Z,9.80
2022-11-05T00:59:15.184Z,9.80
2022-11-05T01:01:48.467Z,9.80
2022-11-05T01:04:22.156Z,9.80
2022-11-05T01:06:56.471Z,9.80
2022-11-05T01:09:30.086Z,9.80
2022-11-05T01:12:03.329Z,9.80
2022-11-05T01:14:38.296Z,9.80
2022-11-05T01:17:11.519Z,9.80
2022-11-05T01:19:45.006Z,9.80
2022-11-05T01:22:18.435Z,9.90
2022-11-05T01:24:51.851Z,9.80
2022-11-05T01:27:25.455Z,9.90
2022-11-05T01:30:00.133Z,9.80
2022-11-05T01:32:33.575Z,9.80
2022-11-05T01:35:07.946Z,9.80
2022-11-05T01:37:41.934Z,9.80
2022-11-05T01:40:16.891Z,9.80
2022-11-05T01:42:50.318Z,9.70
2022-11-05T01:45:26.660Z,9.70
2022-11-05T01:48:04.407Z,9.70
2022-11-05T01:50:43.508Z,9.70
2022-11-05T01:53:22.198Z,9.70
2022-11-05T01:56:02.101Z,9.70
2022-11-05T01:58:39.187Z,9.70
2022-11-05T02:01:14.382Z,9.70
2022-11-05T02:03:49.733Z,9.70
2022-11-05T02:06:23.311Z,9.60
2022-11-05T02:09:01.128Z,9.70
2022-11-05T02:11:35.029Z,9.60
2022-11-05T02:14:08.371Z,9.60
2022-11-05T02:16:49.271Z,9.60
2022-11-05T02:20:03.111Z,9.60
2022-11-05T02:22:58.700Z,9.60
2022-11-05T02:26:00.436Z,9.60
2022-11-05T02:28:54.628Z,9.60
2022-11-05T02:31:37.309Z,9.70
2022-11-05T02:34:15.708Z,9.70
2022-11-05T02:36:54.835Z,9.70
2022-11-05T02:39:39.174Z,9.70
2022-11-05T02:42:19.099Z,9.70
2022-11-05T02:45:02.657Z,9.70
2022-11-05T02:47:43.273Z,9.70
2022-11-05T02:50:24.806Z,9.70
2022-11-05T02:53:02.816Z,9.70
2022-11-05T02:55:41.292Z,9.80
2022-11-05T02:58:14.903Z,9.80
2022-11-05T03:00:51.696Z,9.80
2022-11-05T03:03:35.481Z,9.80
2022-11-05T03:06:49.595Z,9.80
2022-11-05T03:09:36.768Z,9.80
2022-11-05T03:12:22.505Z,9.80
2022-11-05T03:15:03.796Z,9.80
2022-11-05T03:17:45.278Z,9.80
2022-11-05T03:20:24.929Z,9.90
2022-11-05T03:23:10.680Z,9.90
2022-11-05T03:25:47.870Z,9.90
2022-11-05T03:28:25.359Z,9.90
2022-11-05T03:31:00.131Z,9.90
2022-11-05T03:33:35.681Z,9.90
2022-11-05T03:36:17.473Z,9.90
2022-11-05T03:38:54.039Z,9.90
2022-11-05T03:41:29.018Z,9.90
2022-11-05T03:44:07.670Z,10.00
2022-11-05T03:46:45.314Z,10.00
2022-11-05T03:49:22.639Z,10.00
2022-11-05T03:52:02.757Z,10.00
2022-11-05T03:54:37.025Z,9.90
2022-11-05T03:57:14.271Z,9.90
2022-11-05T03:59:49.621Z,10.00
2022-11-05T04:02:26.005Z,10.00
2022-11-05T04:04:59.456Z,10.00
2022-11-05T04:07:51.565Z,10.00
2022-11-05T04:10:42.083Z,10.00
2022-11-05T04:13:27.867Z,10.00
2022-11-05T04:16:18.891Z,10.00
2022-11-05T04:18:52.136Z,10.00
2022-11-05T04:21:43.175Z,10.00
2022-11-05T04:24:17.776Z,9.90
2022-11-05T04:26:51.334Z,10.00
2022-11-05T04:29:42.017Z,10.00
2022-11-05T04:32:15.414Z,10.00
2022-11-05T04:34:48.677Z,10.00
2022-11-05T04:37:22.375Z,10.00
2022-11-05T04:39:57.147Z,10.00
2022-11-05T04:42:30.480Z,10.00
2022-11-05T04:45:03.968Z,10.00
2022-11-05T04:47:37.225Z,10.00
2022-11-05T04:50:12.374Z,10.00
2022-11-05T04:52:45.604Z,10.00
2022-11-05T04:55:20.803Z,10.00
2022-11-05T04:57:55.343Z,10.00
2022-11-05T05:00:28.656Z,10.10
2022-11-05T05:03:02.303Z,10.10
2022-11-05T05:05:35.570Z,10.10
2022-11-05T05:08:08.853Z,10.10
2022-11-05T05:10:43.640Z,10.10
2022-11-05T05:13:17.072Z,10.10
2022-11-05T05:15:50.292Z,10.10
2022-11-05T05:18:25.414Z,10.10
2022-11-05T05:21:16.464Z,10.10
2022-11-05T05:23:49.916Z,10.10
2022-11-05T05:26:24.906Z,10.10
2022-11-05T05:28:58.339Z,10.10
2022-11-05T05:31:31.933Z,10.20
2022-11-05T05:34:06.007Z,10.20
2022-11-05T05:36:39.288Z,10.20
2022-11-05T05:39:12.716Z,10.20
2022-11-05T05:41:47.332Z,10.20
2022-11-05T05:44:20.880Z,10.20
2022-11-05T05:46:55.740Z,10.20
2022-11-05T05:49:29.165Z,10.20
2022-11-05T05:52:02.575Z,10.20
2022-11-05T05:54:42.267Z,10.20
2022-11-05T05:57:17.472Z,10.20
2022-11-05T05:59:50.983Z,10.20
2022-11-05T06:02:24.404Z,10.20
2022-11-05T06:04:57.955Z,10.20
2022-11-05T06:07:36.043Z,10.20
2022-11-05T06:10:11.048Z,10.20
2022-11-05T06:12:45.839Z,10.20
2022-11-05T06:15:19.094Z,10.20
2022-11-05T06:17:52.516Z,10.20
2022-11-05T06:20:25.786Z,10.20
2022-11-05T06:22:59.465Z,10.20
2022-11-05T06:25:35.998Z,10.20
2022-11-05T06:28:14.796Z,10.10
2022-11-05T06:30:51.745Z,10.20
2022-11-05T06:33:25.264Z,10.20
2022-11-05T06:36:00.018Z,10.20
2022-11-05T06:38:35.062Z,10.20
2022-11-05T06:41:10.486Z,10.20
2022-11-05T06:43:45.512Z,10.20
2022-11-05T06:46:18.790Z,10.30
2022-11-05T06:48:52.087Z,10.30
2022-11-05T06:51:25.628Z,10.30
2022-11-05T06:53:59.079Z,10.30
2022-11-05T06:56:32.465Z,10.30
2022-11-05T06:59:08.580Z,10.30
2022-11-05T07:01:42.029Z,10.30
2022-11-05T07:04:15.475Z,10.30
2022-11-05T07:06:48.899Z,10.40
2022-11-05T07:09:22.211Z,10.30
2022-11-05T07:11:55.886Z,10.40
2022-11-05T07:14:30.696Z,10.30
2022-11-05T07:17:04.119Z,10.40
2022-11-05T07:19:37.409Z,10.30
2022-11-05T07:22:10.721Z,10.40
2022-11-05T07:24:47.191Z,10.40
2022-11-05T07:27:20.497Z,10.40
2022-11-05T07:29:55.234Z,10.40
2022-11-05T07:32:28.585Z,10.40
2022-11-05T07:35:03.405Z,10.50
2022-11-05T07:37:43.940Z,10.40
2022-11-05T07:40:19.306Z,10.40
2022-11-05T07:42:54.662Z,10.40
2022-11-05T07:45:31.355Z,10.40
2022-11-05T07:48:06.153Z,10.40
2022-11-05T07:50:39.825Z,10.40
2022-11-05T07:53:14.771Z,10.40
2022-11-05T07:55:48.249Z,10.50
2022-11-05T07:58:21.550Z,10.40
2022-11-05T08:00:57.840Z,10.40
2022-11-05T08:03:31.708Z,10.50
2022-11-05T08:06:05.438Z,10.50
2022-11-05T08:08:38.719Z,10.50
2022-11-05T08:11:13.074Z,10.50
2022-11-05T08:13:46.503Z,10.50
2022-11-05T08:16:21.130Z,10.50
2022-11-05T08:18:54.395Z,10.50
2022-11-05T08:21:27.675Z,10.50
2022-11-05T08:24:00.964Z,10.50
2022-11-05T08:26:34.418Z,10.50
2022-11-05T08:29:07.683Z,10.50
2022-11-05T08:31:42.470Z,10.50
2022-11-05T08:34:15.892Z,10.40
2022-11-05T08:36:49.115Z,10.40
2022-11-05T08:39:22.374Z,10.40
2022-11-05T08:41:55.736Z,10.30
2022-11-05T08:44:29.759Z,10.40
2022-11-05T08:47:04.450Z,10.30
2022-11-05T08:49:37.685Z,10.30
2022-11-05T08:52:10.955Z,10.30
2022-11-05T08:54:44.588Z,10.30
2022-11-05T08:57:17.824Z,10.30
2022-11-05T08:59:51.076Z,10.30
2022-11-05T09:02:25.836Z,10.30
2022-11-05T09:04:59.215Z,10.30
2022-11-05T09:07:35.465Z,10.20
2022-11-05T09:10:09.297Z,10.30
2022-11-05T09:12:42.769Z,10.20
2022-11-05T09:15:16.100Z,10.30
2022-11-05T09:17:50.782Z,10.30
2022-11-05T09:20:24.568Z,10.30
2022-11-05T09:22:57.909Z,10.30
2022-11-05T09:25:31.649Z,10.30
2022-11-05T09:28:13.420Z,10.30
2022-11-05T09:30:51.543Z,10.30
2022-11-05T09:33:28.096Z,10.30
2022-11-05T09:36:01.716Z,10.30
2022-11-05T09:38:35.978Z,10.30
2022-11-05T09:41:14.166Z,10.40
2022-11-05T09:43:52.052Z,10.40
2022-11-05T09:46:27.546Z,10.40
2022-11-05T09:49:06.311Z,10.40
2022-11-05T09:51:42.019Z,10.40
2022-11-05T09:54:16.694Z,10.40
2022-11-05T09:56:50.193Z,10.50
2022-11-05T09:59:27.201Z,10.50
2022-11-05T10:02:12.485Z,10.50
2022-11-05T10:04:51.546Z,10.50
2022-11-05T10:07:27.854Z,10.50
2022-11-05T10:10:04.384Z,10.50
2022-11-05T10:12:42.516Z,10.60
2022-11-05T10:15:22.041Z,10.50
2022-11-05T10:17:59.202Z,10.60
2022-11-05T10:20:36.981Z,10.60
2022-11-05T10:23:14.397Z,10.60
2022-11-05T10:25:51.597Z,10.70
2022-11-05T10:28:27.461Z,10.70
2022-11-05T10:31:02.600Z,10.70
2022-11-05T10:33:40.835Z,10.60
2022-11-05T10:36:22.013Z,10.70
2022-11-05T10:38:58.135Z,10.70
2022-11-05T10:41:50.544Z,10.70
2022-11-05T10:44:33.227Z,10.70
2022-11-05T10:47:25.726Z,10.70
2022-11-05T10:50:00.935Z,10.70
2022-11-05T10:52:37.567Z,10.60
2022-11-05T10:55:17.825Z,10.70
2022-11-05T10:57:51.465Z,10.70
2022-11-05T11:00:31.876Z,10.60
2022-11-05T11:03:06.806Z,10.60
2022-11-05T11:05:41.794Z,10.60
2022-11-05T11:08:25.488Z,10.60
2022-11-05T11:11:03.252Z,10.70
2022-11-05T11:13:51.473Z,10.60
2022-11-05T11:16:26.814Z,10.60
2022-11-05T11:19:03.105Z,10.70
2022-11-05T11:21:37.970Z,10.70
2022-11-05T11:24:23.279Z,10.70
2022-11-05T11:27:03.010Z,10.70
2022-11-05T11:29:42.879Z,10.70
2022-11-05T11:32:22.250Z,10.70
2022-11-05T11:34:58.373Z,10.70
2022-11-05T11:37:34.570Z,10.70
2022-11-05T11:40:17.095Z,10.70
2022-11-05T11:42:54.374Z,10.70
2022-11-05T11:45:32.790Z,10.70
2022-11-05T11:48:07.822Z,10.70
2022-11-05T11:50:43.653Z,10.60
2022-11-05T11:53:35.746Z,10.60
2022-11-05T11:56:18.112Z,10.60
2022-11-05T11:58:52.889Z,10.60
2022-11-05T12:02:00.324Z,10.50
2022-11-05T12:04:50.865Z,10.60
2022-11-05T12:07:35.225Z,10.50
2022-11-05T12:10:23.242Z,10.50
2022-11-05T12:13:15.908Z,10.50
2022-11-05T12:15:52.724Z,10.60
2022-11-05T12:18:36.393Z,10.60
2022-11-05T12:21:34.602Z,10.60
2022-11-05T12:24:46.986Z,10.60
2022-11-05T12:27:33.539Z,10.60
2022-11-05T12:30:14.933Z,10.60
2022-11-05T12:33:08.508Z,10.60
2022-11-05T12:35:57.457Z,10.70
2022-11-05T12:38:52.760Z,10.70
2022-11-05T12:41:30.960Z,10.70
2022-11-05T12:44:23.999Z,10.70
2022-11-05T12:47:06.419Z,10.60
2022-11-05T12:49:51.419Z,10.60
2022-11-05T12:52:44.360Z,10.60
2022-11-05T12:55:19.297Z,10.60
2022-11-05T12:57:55.612Z,10.50
2022-11-05T13:00:30.222Z,10.50
2022-11-05T13:03:25.023Z,10.60
2022-11-05T13:06:06.434Z,10.50
2022-11-05T13:08:45.795Z,10.50
2022-11-05T13:11:25.926Z,10.50
2022-11-05T13:14:09.669Z,10.40
2022-11-05T13:16:47.148Z,10.40
2022-11-05T13:19:25.776Z,10.40
2022-11-05T13:22:07.998Z,10.30
2022-11-05T13:24:48.190Z,10.30
2022-11-05T13:27:40.479Z,10.30
2022-11-05T13:30:17.846Z,10.20
2022-11-05T13:32:57.211Z,10.20
2022-11-05T13:35:37.151Z,10.20
2022-11-05T13:38:35.553Z,10.20
2022-11-05T13:41:22.663Z,10.10
2022-11-05T13:44:21.504Z,10.10
2022-11-05T13:47:14.115Z,10.00
2022-11-05T13:50:26.810Z,10.00
2022-11-05T13:53:23.482Z,10.00
2022-11-05T13:56:04.365Z,9.90
2022-11-05T13:59:02.591Z,10.00
2022-11-05T14:01:45.615Z,9.90
2022-11-05T14:04:32.177Z,9.90
2022-11-05T14:07:12.398Z,9.90
2022-11-05T14:09:48.593Z,9.90
2022-11-05T14:12:26.809Z,9.80
2022-11-05T14:15:08.779Z,9.80
2022-11-05T14:17:57.188Z,9.80
2022-11-05T14:21:00.359Z,9.80
2022-11-05T14:23:38.405Z,9.80
2022-11-05T14:26:17.130Z,9.80
2022-11-05T14:29:10.237Z,9.80
2022-11-05T14:32:11.545Z,9.80
2022-11-05T14:34:48.621Z,9.80
2022-11-05T14:37:33.522Z,9.90
2022-11-05T14:40:36.291Z,9.90
2022-11-05T14:43:20.972Z,9.90
2022-11-05T14:45:57.374Z,9.90
2022-11-05T14:48:40.372Z,9.90
2022-11-05T14:51:29.608Z,9.90
2022-11-05T14:54:05.619Z,9.90
2022-11-05T14:56:51.783Z,10.00
2022-11-05T15:00:03.335Z,9.90
2022-11-05T15:02:39.078Z,9.90
2022-11-05T15:05:49.798Z,9.80
2022-11-05T15:08:32.154Z,9.80
2022-11-05T15:11:14.527Z,9.80
2022-11-05T15:13:58.720Z,9.70
2022-11-05T15:16:37.082Z,9.70
2022-11-05T15:19:18.931Z,9.70
2022-11-05T15:21:54.288Z,9.60
2022-11-05T15:24:29.252Z,9.60
2022-11-05T15:27:08.556Z,9.50
2022-11-05T15:29:43.036Z,9.50
2022-11-05T15:32:20.230Z,9.50
2022-11-05T15:34:55.374Z,9.50
2022-11-05T15:37:28.888Z,9.50
2022-11-05T15:40:02.281Z,9.50
2022-11-05T15:42:35.589Z,9.50
2022-11-05T15:45:21.067Z,9.50
2022-11-05T15:47:55.737Z,9.50
2022-11-05T15:50:29.359Z,9.40
2022-11-05T15:53:41.615Z,9.40
2022-11-05T15:56:12.852Z,9.40
2022-11-05T15:58:50.094Z,9.30
2022-11-05T16:01:28.057Z,9.30
2022-11-05T16:04:09.784Z,9.30
2022-11-05T16:06:46.075Z,9.30
2022-11-05T16:09:24.782Z,9.30
2022-11-05T16:12:14.095Z,9.30
2022-11-05T16:14:58.766Z,9.30
2022-11-05T16:17:34.684Z,9.30
2022-11-05T16:20:22.672Z,9.30
2022-11-05T16:22:58.354Z,9.30
2022-11-05T16:25:37.644Z,9.20
2022-11-05T16:28:23.206Z,9.20
2022-11-05T16:30:57.768Z,9.20
2022-11-05T16:33:35.344Z,9.20
2022-11-05T16:36:10.936Z,9.20
2022-11-05T16:38:44.430Z,9.20
2022-11-05T16:41:19.014Z,9.20
2022-11-05T16:43:54.155Z,9.20
2022-11-05T16:46:29.684Z,9.20
2022-11-05T16:49:02.954Z,9.20
2022-11-05T16:51:37.572Z,9.20
2022-11-05T16:54:11.197Z,9.20
2022-11-05T16:56:46.998Z,9.30
2022-11-05T16:59:20.296Z,9.20
2022-11-05T17:01:55.974Z,9.20
2022-11-05T17:04:29.512Z,9.20
2022-11-05T17:07:04.223Z,9.20
2022-11-05T17:09:37.572Z,9.20
2022-11-05T17:12:11.034Z,9.20
2022-11-05T17:14:44.405Z,9.20
2022-11-05T17:17:17.738Z,9.20
2022-11-05T17:19:51.014Z,9.20
2022-11-05T17:22:25.648Z,9.10
2022-11-05T17:24:58.932Z,9.10
2022-11-05T17:27:32.194Z,9.10
2022-11-05T17:30:06.451Z,9.10
2022-11-05T17:32:39.752Z,9.10
2022-11-05T17:35:13.742Z,9.00
2022-11-05T17:37:48.753Z,9.10
2022-11-05T17:40:23.865Z,9.10
2022-11-05T17:42:57.185Z,9.10
2022-11-05T17:45:30.990Z,9.10
2022-11-05T17:48:05.100Z,9.10
2022-11-05T17:50:41.794Z,9.10
2022-11-05T17:53:17.763Z,9.10
2022-11-05T17:55:51.054Z,9.10
2022-11-05T17:58:24.322Z,9.10
2022-11-05T18:00:57.686Z,9.10
2022-11-05T18:03:31.009Z,9.10
2022-11-05T18:06:05.263Z,9.10
2022-11-05T18:08:39.976Z,9.10
2022-11-05T18:11:13.787Z,9.10
2022-11-05T18:13:47.588Z,9.10
2022-11-05T18:16:20.900Z,9.10
2022-11-05T18:18:54.204Z,9.00
2022-11-05T18:21:27.564Z,9.00
2022-11-05T18:24:05.024Z,9.00
2022-11-05T18:26:38.291Z,9.00
2022-11-05T18:29:11.558Z,9.00
2022-11-05T18:31:44.869Z,9.00
2022-11-05T18:34:18.208Z,9.00
2022-11-05T18:36:56.145Z,9.00
2022-11-05T18:39:31.340Z,9.00
2022-11-05T18:42:04.776Z,9.00
2022-11-05T18:44:39.544Z,8.90
2022-11-05T18:47:13.289Z,8.90
2022-11-05T18:49:46.622Z,8.90
2022-11-05T18:52:19.914Z,8.90
2022-11-05T18:54:54.856Z,9.00
2022-11-05T18:57:28.377Z,9.00
2022-11-05T19:00:01.712Z,9.00
2022-11-05T19:02:35.044Z,9.00
2022-11-05T19:08:02.554Z,9.10
2022-11-05T19:10:40.279Z,9.10
2022-11-05T19:13:14.107Z,9.10
2022-11-05T19:15:47.396Z,9.10
2022-11-05T19:18:20.705Z,9.10
2022-11-05T19:20:54.010Z,9.10
2022-11-05T19:23:27.352Z,9.10
2022-11-05T19:26:05.577Z,9.10
2022-11-05T19:28:38.992Z,9.10
2022-11-05T19:31:15.205Z,9.10
2022-11-05T19:33:50.415Z,9.10
2022-11-05T19:36:25.347Z,9.10
2022-11-05T19:39:00.759Z,9.00
2022-11-05T19:41:35.586Z,9.00
2022-11-05T19:44:09.265Z,9.00
2022-11-05T19:46:43.983Z,9.10
2022-11-05T19:49:17.361Z,9.10
2022-11-05T19:51:51.068Z,9.10
2022-11-05T19:54:24.448Z,9.10
2022-11-05T19:56:59.805Z,9.10
2022-11-05T19:59:33.339Z,9.10
2022-11-05T20:02:09.525Z,9.20
2022-11-05T20:04:46.795Z,9.10
2022-11-05T20:07:20.448Z,9.10
2022-11-05T20:09:53.806Z,9.20
2022-11-05T20:12:28.485Z,9.20
2022-11-05T20:15:01.772Z,9.20
2022-11-05T20:17:35.063Z,9.20
2022-11-05T20:20:09.560Z,9.20
2022-11-05T20:22:43.482Z,9.20
2022-11-05T20:25:16.929Z,9.20
2022-11-05T20:27:51.663Z,9.20
2022-11-05T20:30:24.992Z,9.20
2022-11-05T20:32:58.999Z,9.20
2022-11-05T20:35:32.270Z,9.20
2022-11-05T20:38:05.664Z,9.20
2022-11-05T20:40:40.953Z,9.20
2022-11-05T20:43:15.599Z,9.20
2022-11-05T20:45:48.899Z,9.20
2022-11-05T20:48:22.183Z,9.20
2022-11-05T20:50:55.428Z,9.20
2022-11-05T20:53:28.750Z,9.20
2022-11-05T20:56:07.486Z,9.20
2022-11-05T20:58:42.558Z,9.10
2022-11-05T21:01:16.835Z,9.20
2022-11-05T21:03:50.240Z,9.10
2022-11-05T21:06:23.966Z,9.10
2022-11-05T21:08:57.325Z,9.10
2022-11-05T21:11:50.680Z,9.10
2022-11-05T21:14:25.326Z,9.10
2022-11-05T21:16:58.588Z,9.10
2022-11-05T21:19:32.794Z,9.10
2022-11-05T21:22:07.395Z,9.20
2022-11-05T21:24:40.639Z,9.20
2022-11-05T21:27:13.895Z,9.20
2022-11-05T21:29:48.495Z,9.20
2022-11-05T21:32:21.766Z,9.30
2022-11-05T21:34:55.007Z,9.30
2022-11-05T21:37:28.778Z,9.20
2022-11-05T21:40:02.184Z,9.20
2022-11-05T21:42:35.489Z,9.30
2022-11-05T21:45:11.173Z,9.30
2022-11-05T21:47:44.441Z,9.20
2022-11-05T21:50:21.754Z,9.30
2022-11-05T21:53:12.628Z,9.30
2022-11-05T21:56:08.651Z,9.30
2022-11-05T21:58:59.488Z,9.30
2022-11-05T22:01:37.033Z,9.30
2022-11-05T22:04:10.501Z,9.30
2022-11-05T22:06:43.838Z,9.30
2022-11-05T22:09:17.254Z,9.30
2022-11-05T22:11:50.679Z,9.30
2022-11-05T22:14:24.869Z,9.30
2022-11-05T22:16:59.796Z,9.20
2022-11-05T22:19:34.377Z,9.20
2022-11-05T22:22:08.249Z,9.30
2022-11-05T22:24:42.740Z,9.30
2022-11-05T22:27:18.868Z,9.30
2022-11-05T22:29:52.452Z,9.20
2022-11-05T22:32:27.281Z,9.20
2022-11-05T22:35:01.166Z,9.20
2022-11-05T22:37:34.592Z,9.20
2022-11-05T22:40:08.834Z,9.20
2022-11-05T22:42:42.158Z,9.20
2022-11-05T22:45:15.629Z,9.20
2022-11-05T22:47:50.255Z,9.20
2022-11-05T22:50:23.875Z,9.20
2022-11-05T22:52:57.117Z,9.20
2022-11-05T22:55:30.577Z,9.20
2022-11-05T22:58:03.821Z,9.10
2022-11-05T23:00:38.604Z,9.10
2022-11-05T23:03:13.269Z,9.20
2022-11-05T23:05:46.854Z,9.20
2022-11-05T23:08:37.432Z,9.20
2022-11-05T23:11:34.147Z,9.10
2022-11-05T23:14:08.826Z,9.20
2022-11-05T23:17:00.002Z,9.20
2022-11-05T23:19:52.418Z,9.20
2022-11-05T23:22:45.838Z,9.20
2022-11-05T23:25:22.282Z,9.20
2022-11-05T23:27:55.968Z,9.20
2022-11-05T23:30:29.977Z,9.10
2022-11-05T23:33:02.356Z,9.10
2022-11-05T23:35:54.507Z,9.10
2022-11-05T23:38:36.584Z,9.10
2022-11-05T23:41:26.987Z,9.10
2022-11-05T23:44:17.755Z,9.10
2022-11-05T23:47:08.123Z,9.00
2022-11-05T23:49:41.711Z,9.10
2022-11-05T23:52:16.324Z,9.10
2022-11-05T23:54:49.954Z,9.10
2022-11-05T23:57:23.183Z,9.10
2022-11-05T23:59:56.447Z,9.00
